EBDT

Schaffen Airport

Diest, Belgium
METAR EBDT 231555Z AUTO 06010KT 9999 NCD 03/M10 Q1020 BLU
Observed Flight Rules
Feb-23 @ 15:55 UTC (45 minutes ago) Visual Flight Rules
Wind Visibility Clouds
60° at 10 knots 10,000+ meters
  • Clear skies
Temperatures Readings
Current 3°C / 37°F
Dewpoint -10°C / 14°F
Humidity 38%
Altimeter 30.12" Hg
Pressure 1020 hPa
Elevation 54
METAR EBDT 231555Z AUTO 06010KT 9999 NCD 03/M10 Q1020 BLU
Observed Flight Rules
Feb-23 @ 15:55 UTC
(45 minutes ago)
VFR
Wind Visibility
60° at 10 knots 10,000+ meters
Clouds
  • Clear skies
Temperature Dewpoint
3°C / 37°F -10°C / 14°F
Humidity Altimeter Pressure
38% 30.12" Hg 1020 hPa